sensor_id;sensor_type;location;lat;lon;timestamp;P1;durP1;ratioP1;P2;durP2;ratioP2
4375;SDS011;2202;50.866;12.750;2023-08-08T00:00:52;8.87;;;4.23;;
4375;SDS011;2202;50.866;12.750;2023-08-08T00:03:19;9.20;;;4.07;;
4375;SDS011;2202;50.866;12.750;2023-08-08T00:05:46;11.03;;;5.30;;
4375;SDS011;2202;50.866;12.750;2023-08-08T00:08:13;8.03;;;4.40;;
4375;SDS011;2202;50.866;12.750;2023-08-08T00:10:41;8.00;;;4.07;;
4375;SDS011;2202;50.866;12.750;2023-08-08T00:13:08;6.93;;;3.43;;
4375;SDS011;2202;50.866;12.750;2023-08-08T00:15:35;14.30;;;5.13;;
4375;SDS011;2202;50.866;12.750;2023-08-08T00:18:02;7.83;;;3.90;;
4375;SDS011;2202;50.866;12.750;2023-08-08T00:20:29;8.77;;;4.10;;
4375;SDS011;2202;50.866;12.750;2023-08-08T00:22:56;9.13;;;4.10;;
4375;SDS011;2202;50.866;12.750;2023-08-08T00:25:23;8.60;;;4.43;;
4375;SDS011;2202;50.866;12.750;2023-08-08T00:27:51;8.90;;;4.33;;
4375;SDS011;2202;50.866;12.750;2023-08-08T00:30:18;9.70;;;4.27;;
4375;SDS011;2202;50.866;12.750;2023-08-08T00:32:45;7.93;;;3.97;;
4375;SDS011;2202;50.866;12.750;2023-08-08T00:35:11;14.23;;;4.93;;
4375;SDS011;2202;50.866;12.750;2023-08-08T00:37:38;15.13;;;4.70;;
4375;SDS011;2202;50.866;12.750;2023-08-08T00:40:05;7.43;;;3.80;;
4375;SDS011;2202;50.866;12.750;2023-08-08T00:42:33;9.67;;;4.60;;
4375;SDS011;2202;50.866;12.750;2023-08-08T00:45:01;17.67;;;4.97;;
4375;SDS011;2202;50.866;12.750;2023-08-08T00:47:29;10.33;;;4.20;;
4375;SDS011;2202;50.866;12.750;2023-08-08T00:49:56;10.70;;;5.03;;
4375;SDS011;2202;50.866;12.750;2023-08-08T00:52:23;10.20;;;5.23;;
4375;SDS011;2202;50.866;12.750;2023-08-08T00:54:51;9.87;;;4.60;;
4375;SDS011;2202;50.866;12.750;2023-08-08T00:57:18;10.97;;;4.77;;
4375;SDS011;2202;50.866;12.750;2023-08-08T00:59:45;7.63;;;4.10;;
4375;SDS011;2202;50.866;12.750;2023-08-08T01:02:13;7.73;;;4.43;;
4375;SDS011;2202;50.866;12.750;2023-08-08T01:04:40;11.07;;;4.73;;
4375;SDS011;2202;50.866;12.750;2023-08-08T01:07:09;7.07;;;4.13;;
4375;SDS011;2202;50.866;12.750;2023-08-08T01:09:44;9.90;;;4.77;;
4375;SDS011;2202;50.866;12.750;2023-08-08T01:12:14;8.90;;;4.07;;
4375;SDS011;2202;50.866;12.750;2023-08-08T01:14:42;8.90;;;4.30;;
4375;SDS011;2202;50.866;12.750;2023-08-08T01:17:10;10.13;;;5.03;;
4375;SDS011;2202;50.866;12.750;2023-08-08T01:19:39;10.10;;;5.03;;
4375;SDS011;2202;50.866;12.750;2023-08-08T01:22:07;10.07;;;4.00;;
4375;SDS011;2202;50.866;12.750;2023-08-08T01:24:41;8.80;;;4.67;;
4375;SDS011;2202;50.866;12.750;2023-08-08T01:27:09;10.50;;;3.90;;
4375;SDS011;2202;50.866;12.750;2023-08-08T01:29:37;9.27;;;4.53;;
4375;SDS011;2202;50.866;12.750;2023-08-08T01:32:04;8.37;;;4.10;;
4375;SDS011;2202;50.866;12.750;2023-08-08T01:34:31;7.47;;;4.20;;
4375;SDS011;2202;50.866;12.750;2023-08-08T01:37:00;9.20;;;3.93;;
4375;SDS011;2202;50.866;12.750;2023-08-08T01:39:32;6.43;;;3.43;;
4375;SDS011;2202;50.866;12.750;2023-08-08T01:42:01;7.43;;;3.67;;
4375;SDS011;2202;50.866;12.750;2023-08-08T01:44:28;9.37;;;4.03;;
4375;SDS011;2202;50.866;12.750;2023-08-08T01:46:58;10.67;;;4.27;;
4375;SDS011;2202;50.866;12.750;2023-08-08T01:49:25;6.37;;;3.30;;
4375;SDS011;2202;50.866;12.750;2023-08-08T01:51:51;8.00;;;4.47;;
4375;SDS011;2202;50.866;12.750;2023-08-08T01:54:18;9.97;;;4.80;;
4375;SDS011;2202;50.866;12.750;2023-08-08T01:56:45;7.70;;;3.90;;
4375;SDS011;2202;50.866;12.750;2023-08-08T01:59:13;7.00;;;3.70;;
4375;SDS011;2202;50.866;12.750;2023-08-08T02:01:40;8.83;;;3.93;;
4375;SDS011;2202;50.866;12.750;2023-08-08T02:04:07;10.83;;;3.70;;
4375;SDS011;2202;50.866;12.750;2023-08-08T02:06:34;9.70;;;4.40;;
4375;SDS011;2202;50.866;12.750;2023-08-08T02:09:01;5.80;;;3.57;;
4375;SDS011;2202;50.866;12.750;2023-08-08T02:11:28;7.70;;;4.10;;
4375;SDS011;2202;50.866;12.750;2023-08-08T02:13:55;8.23;;;4.87;;
4375;SDS011;2202;50.866;12.750;2023-08-08T02:16:23;8.60;;;4.57;;
4375;SDS011;2202;50.866;12.750;2023-08-08T02:18:50;7.27;;;3.20;;
4375;SDS011;2202;50.866;12.750;2023-08-08T02:21:17;8.27;;;4.37;;
4375;SDS011;2202;50.866;12.750;2023-08-08T02:23:44;9.33;;;4.50;;
4375;SDS011;2202;50.866;12.750;2023-08-08T02:26:10;8.17;;;4.07;;
4375;SDS011;2202;50.866;12.750;2023-08-08T02:28:37;7.33;;;4.07;;
4375;SDS011;2202;50.866;12.750;2023-08-08T02:31:04;9.67;;;4.47;;
4375;SDS011;2202;50.866;12.750;2023-08-08T02:33:32;7.83;;;4.17;;
4375;SDS011;2202;50.866;12.750;2023-08-08T02:35:59;7.73;;;4.17;;
4375;SDS011;2202;50.866;12.750;2023-08-08T02:38:26;9.27;;;4.30;;
4375;SDS011;2202;50.866;12.750;2023-08-08T02:40:53;7.03;;;3.70;;
4375;SDS011;2202;50.866;12.750;2023-08-08T02:43:19;9.77;;;4.40;;
4375;SDS011;2202;50.866;12.750;2023-08-08T02:45:46;10.47;;;3.83;;
4375;SDS011;2202;50.866;12.750;2023-08-08T02:48:13;10.90;;;4.93;;
4375;SDS011;2202;50.866;12.750;2023-08-08T02:50:41;7.60;;;4.27;;
4375;SDS011;2202;50.866;12.750;2023-08-08T02:53:08;8.87;;;4.23;;
4375;SDS011;2202;50.866;12.750;2023-08-08T02:55:35;8.97;;;4.33;;
4375;SDS011;2202;50.866;12.750;2023-08-08T02:58:03;8.23;;;3.93;;
4375;SDS011;2202;50.866;12.750;2023-08-08T03:00:30;8.07;;;4.70;;
4375;SDS011;2202;50.866;12.750;2023-08-08T03:02:57;8.67;;;4.67;;
4375;SDS011;2202;50.866;12.750;2023-08-08T03:05:24;9.30;;;4.23;;
4375;SDS011;2202;50.866;12.750;2023-08-08T03:07:52;6.93;;;4.20;;
4375;SDS011;2202;50.866;12.750;2023-08-08T03:10:19;14.23;;;4.93;;
4375;SDS011;2202;50.866;12.750;2023-08-08T03:12:46;9.77;;;4.30;;
4375;SDS011;2202;50.866;12.750;2023-08-08T03:15:13;9.33;;;4.63;;
4375;SDS011;2202;50.866;12.750;2023-08-08T03:17:40;9.93;;;4.67;;
4375;SDS011;2202;50.866;12.750;2023-08-08T03:20:07;7.03;;;4.10;;
4375;SDS011;2202;50.866;12.750;2023-08-08T03:22:36;9.13;;;4.50;;
4375;SDS011;2202;50.866;12.750;2023-08-08T03:25:04;12.33;;;5.33;;
4375;SDS011;2202;50.866;12.750;2023-08-08T03:27:32;7.23;;;4.50;;
4375;SDS011;2202;50.866;12.750;2023-08-08T03:29:59;11.30;;;5.53;;
4375;SDS011;2202;50.866;12.750;2023-08-08T03:32:25;7.20;;;4.20;;
4375;SDS011;2202;50.866;12.750;2023-08-08T03:34:53;9.60;;;5.10;;
4375;SDS011;2202;50.866;12.750;2023-08-08T03:37:19;7.77;;;4.17;;
4375;SDS011;2202;50.866;12.750;2023-08-08T03:39:46;11.03;;;5.00;;
4375;SDS011;2202;50.866;12.750;2023-08-08T03:42:15;7.87;;;4.60;;
4375;SDS011;2202;50.866;12.750;2023-08-08T03:44:41;11.20;;;4.77;;
4375;SDS011;2202;50.866;12.750;2023-08-08T03:47:10;9.10;;;4.30;;
4375;SDS011;2202;50.866;12.750;2023-08-08T03:49:37;10.03;;;4.80;;
4375;SDS011;2202;50.866;12.750;2023-08-08T03:52:04;8.83;;;4.63;;
4375;SDS011;2202;50.866;12.750;2023-08-08T03:54:31;9.33;;;5.20;;
4375;SDS011;2202;50.866;12.750;2023-08-08T03:56:57;8.00;;;4.90;;
4375;SDS011;2202;50.866;12.750;2023-08-08T03:59:27;9.87;;;5.10;;
4375;SDS011;2202;50.866;12.750;2023-08-08T04:01:54;8.70;;;4.60;;
4375;SDS011;2202;50.866;12.750;2023-08-08T04:04:20;7.90;;;4.47;;
4375;SDS011;2202;50.866;12.750;2023-08-08T04:06:47;9.10;;;5.37;;
4375;SDS011;2202;50.866;12.750;2023-08-08T04:09:14;12.33;;;6.30;;
4375;SDS011;2202;50.866;12.750;2023-08-08T04:11:41;10.27;;;5.20;;
4375;SDS011;2202;50.866;12.750;2023-08-08T04:14:08;8.67;;;5.63;;
4375;SDS011;2202;50.866;12.750;2023-08-08T04:16:36;12.73;;;5.93;;
4375;SDS011;2202;50.866;12.750;2023-08-08T04:19:04;8.60;;;5.30;;
4375;SDS011;2202;50.866;12.750;2023-08-08T04:21:31;9.90;;;5.60;;
4375;SDS011;2202;50.866;12.750;2023-08-08T04:23:58;13.40;;;5.60;;
4375;SDS011;2202;50.866;12.750;2023-08-08T04:26:25;10.33;;;5.27;;
4375;SDS011;2202;50.866;12.750;2023-08-08T04:28:52;11.30;;;5.90;;
4375;SDS011;2202;50.866;12.750;2023-08-08T04:31:20;12.00;;;7.63;;
4375;SDS011;2202;50.866;12.750;2023-08-08T04:33:50;10.20;;;5.80;;
4375;SDS011;2202;50.866;12.750;2023-08-08T04:36:20;7.73;;;5.17;;
4375;SDS011;2202;50.866;12.750;2023-08-08T04:38:47;8.50;;;4.93;;
4375;SDS011;2202;50.866;12.750;2023-08-08T04:41:14;10.77;;;5.43;;
4375;SDS011;2202;50.866;12.750;2023-08-08T04:43:41;14.20;;;6.50;;
4375;SDS011;2202;50.866;12.750;2023-08-08T04:46:08;12.73;;;5.07;;
4375;SDS011;2202;50.866;12.750;2023-08-08T04:48:35;9.10;;;5.27;;
4375;SDS011;2202;50.866;12.750;2023-08-08T04:51:04;9.60;;;4.80;;
4375;SDS011;2202;50.866;12.750;2023-08-08T04:53:32;8.57;;;4.57;;
4375;SDS011;2202;50.866;12.750;2023-08-08T04:55:58;9.40;;;4.80;;
4375;SDS011;2202;50.866;12.750;2023-08-08T04:58:25;11.00;;;4.33;;
4375;SDS011;2202;50.866;12.750;2023-08-08T05:00:52;9.33;;;4.60;;
4375;SDS011;2202;50.866;12.750;2023-08-08T05:03:20;9.67;;;5.00;;
4375;SDS011;2202;50.866;12.750;2023-08-08T05:05:47;8.20;;;5.40;;
4375;SDS011;2202;50.866;12.750;2023-08-08T05:08:15;9.13;;;5.10;;
4375;SDS011;2202;50.866;12.750;2023-08-08T05:10:42;10.63;;;4.77;;
4375;SDS011;2202;50.866;12.750;2023-08-08T05:13:09;6.60;;;4.03;;
4375;SDS011;2202;50.866;12.750;2023-08-08T05:15:36;9.50;;;4.30;;
4375;SDS011;2202;50.866;12.750;2023-08-08T05:18:03;8.03;;;5.10;;
4375;SDS011;2202;50.866;12.750;2023-08-08T05:20:30;12.23;;;4.70;;
4375;SDS011;2202;50.866;12.750;2023-08-08T05:22:57;10.93;;;5.77;;
4375;SDS011;2202;50.866;12.750;2023-08-08T05:25:25;11.67;;;5.77;;
4375;SDS011;2202;50.866;12.750;2023-08-08T05:27:52;8.37;;;5.00;;
4375;SDS011;2202;50.866;12.750;2023-08-08T05:30:19;9.43;;;5.07;;
4375;SDS011;2202;50.866;12.750;2023-08-08T05:32:46;8.70;;;4.63;;
4375;SDS011;2202;50.866;12.750;2023-08-08T05:35:13;9.73;;;4.80;;
4375;SDS011;2202;50.866;12.750;2023-08-08T05:37:40;7.97;;;4.80;;
4375;SDS011;2202;50.866;12.750;2023-08-08T05:40:07;7.70;;;4.77;;
4375;SDS011;2202;50.866;12.750;2023-08-08T05:42:36;9.00;;;4.80;;
4375;SDS011;2202;50.866;12.750;2023-08-08T05:45:04;8.37;;;4.40;;
4375;SDS011;2202;50.866;12.750;2023-08-08T05:47:31;5.53;;;3.87;;
4375;SDS011;2202;50.866;12.750;2023-08-08T05:49:58;7.37;;;4.30;;
4375;SDS011;2202;50.866;12.750;2023-08-08T05:52:25;7.27;;;3.93;;
4375;SDS011;2202;50.866;12.750;2023-08-08T05:54:55;11.43;;;5.50;;
4375;SDS011;2202;50.866;12.750;2023-08-08T05:57:24;6.47;;;4.30;;
4375;SDS011;2202;50.866;12.750;2023-08-08T05:59:52;10.50;;;4.30;;
4375;SDS011;2202;50.866;12.750;2023-08-08T06:02:19;6.07;;;4.27;;
4375;SDS011;2202;50.866;12.750;2023-08-08T06:04:45;8.03;;;4.30;;
4375;SDS011;2202;50.866;12.750;2023-08-08T06:07:12;7.57;;;4.50;;
4375;SDS011;2202;50.866;12.750;2023-08-08T06:09:39;6.03;;;4.47;;
4375;SDS011;2202;50.866;12.750;2023-08-08T06:12:06;5.47;;;4.13;;
4375;SDS011;2202;50.866;12.750;2023-08-08T06:14:33;9.13;;;4.87;;
4375;SDS011;2202;50.866;12.750;2023-08-08T06:17:02;7.30;;;4.43;;
4375;SDS011;2202;50.866;12.750;2023-08-08T06:19:29;6.63;;;4.30;;
4375;SDS011;2202;50.866;12.750;2023-08-08T06:21:56;6.07;;;4.30;;
4375;SDS011;2202;50.866;12.750;2023-08-08T06:24:22;7.70;;;4.90;;
4375;SDS011;2202;50.866;12.750;2023-08-08T06:26:49;7.27;;;5.07;;
4375;SDS011;2202;50.866;12.750;2023-08-08T06:29:17;5.70;;;3.40;;
4375;SDS011;2202;50.866;12.750;2023-08-08T06:31:44;6.50;;;4.70;;
4375;SDS011;2202;50.866;12.750;2023-08-08T06:34:14;11.23;;;5.43;;
4375;SDS011;2202;50.866;12.750;2023-08-08T06:36:45;8.07;;;5.20;;
4375;SDS011;2202;50.866;12.750;2023-08-08T06:39:12;8.17;;;5.60;;
4375;SDS011;2202;50.866;12.750;2023-08-08T06:41:40;14.00;;;8.80;;
4375;SDS011;2202;50.866;12.750;2023-08-08T06:44:07;16.40;;;9.40;;
4375;SDS011;2202;50.866;12.750;2023-08-08T06:46:34;13.63;;;8.13;;
4375;SDS011;2202;50.866;12.750;2023-08-08T06:49:01;11.00;;;5.90;;
4375;SDS011;2202;50.866;12.750;2023-08-08T06:51:29;8.00;;;4.80;;
4375;SDS011;2202;50.866;12.750;2023-08-08T06:53:56;8.37;;;5.37;;
4375;SDS011;2202;50.866;12.750;2023-08-08T06:56:22;12.80;;;5.10;;
4375;SDS011;2202;50.866;12.750;2023-08-08T06:58:51;8.63;;;5.50;;
4375;SDS011;2202;50.866;12.750;2023-08-08T07:01:17;9.80;;;5.97;;
4375;SDS011;2202;50.866;12.750;2023-08-08T07:03:44;10.40;;;5.47;;
4375;SDS011;2202;50.866;12.750;2023-08-08T07:06:11;15.47;;;6.70;;
4375;SDS011;2202;50.866;12.750;2023-08-08T07:08:40;8.07;;;5.33;;
4375;SDS011;2202;50.866;12.750;2023-08-08T07:11:06;17.80;;;9.17;;
4375;SDS011;2202;50.866;12.750;2023-08-08T07:13:33;20.60;;;9.80;;
4375;SDS011;2202;50.866;12.750;2023-08-08T07:16:00;8.73;;;5.70;;
4375;SDS011;2202;50.866;12.750;2023-08-08T07:18:27;11.40;;;6.67;;
4375;SDS011;2202;50.866;12.750;2023-08-08T07:20:54;13.07;;;8.53;;
4375;SDS011;2202;50.866;12.750;2023-08-08T07:23:21;9.20;;;5.20;;
4375;SDS011;2202;50.866;12.750;2023-08-08T07:25:50;12.17;;;5.10;;
4375;SDS011;2202;50.866;12.750;2023-08-08T07:28:16;9.00;;;5.33;;
4375;SDS011;2202;50.866;12.750;2023-08-08T07:30:43;8.30;;;5.23;;
4375;SDS011;2202;50.866;12.750;2023-08-08T07:33:10;12.20;;;4.40;;
4375;SDS011;2202;50.866;12.750;2023-08-08T07:35:38;8.10;;;5.37;;
4375;SDS011;2202;50.866;12.750;2023-08-08T07:38:05;11.77;;;5.40;;
4375;SDS011;2202;50.866;12.750;2023-08-08T07:40:32;9.57;;;5.03;;
4375;SDS011;2202;50.866;12.750;2023-08-08T07:43:00;8.27;;;5.50;;
4375;SDS011;2202;50.866;12.750;2023-08-08T07:45:27;9.10;;;5.20;;
4375;SDS011;2202;50.866;12.750;2023-08-08T07:47:54;6.67;;;4.93;;
4375;SDS011;2202;50.866;12.750;2023-08-08T07:50:21;11.60;;;5.10;;
4375;SDS011;2202;50.866;12.750;2023-08-08T07:52:47;9.17;;;5.67;;
4375;SDS011;2202;50.866;12.750;2023-08-08T07:55:14;14.00;;;5.30;;
4375;SDS011;2202;50.866;12.750;2023-08-08T07:57:41;11.03;;;5.07;;
4375;SDS011;2202;50.866;12.750;2023-08-08T08:00:10;6.90;;;4.80;;
4375;SDS011;2202;50.866;12.750;2023-08-08T08:02:38;7.53;;;4.37;;
4375;SDS011;2202;50.866;12.750;2023-08-08T08:05:05;6.43;;;4.20;;
4375;SDS011;2202;50.866;12.750;2023-08-08T08:07:33;6.10;;;4.10;;
4375;SDS011;2202;50.866;12.750;2023-08-08T08:10:00;6.73;;;4.20;;
4375;SDS011;2202;50.866;12.750;2023-08-08T08:12:27;5.63;;;4.00;;
4375;SDS011;2202;50.866;12.750;2023-08-08T08:14:54;5.70;;;3.93;;
4375;SDS011;2202;50.866;12.750;2023-08-08T08:17:22;7.10;;;4.40;;
4375;SDS011;2202;50.866;12.750;2023-08-08T08:19:49;10.07;;;6.20;;
4375;SDS011;2202;50.866;12.750;2023-08-08T08:22:16;11.43;;;7.23;;
4375;SDS011;2202;50.866;12.750;2023-08-08T08:24:43;14.83;;;6.63;;
4375;SDS011;2202;50.866;12.750;2023-08-08T08:27:11;17.53;;;8.60;;
4375;SDS011;2202;50.866;12.750;2023-08-08T08:29:38;22.47;;;8.67;;
4375;SDS011;2202;50.866;12.750;2023-08-08T08:32:05;10.87;;;6.00;;
4375;SDS011;2202;50.866;12.750;2023-08-08T08:34:33;6.00;;;3.53;;
4375;SDS011;2202;50.866;12.750;2023-08-08T08:37:01;5.67;;;4.87;;
4375;SDS011;2202;50.866;12.750;2023-08-08T08:39:27;5.10;;;4.33;;
4375;SDS011;2202;50.866;12.750;2023-08-08T08:41:57;6.00;;;3.77;;
4375;SDS011;2202;50.866;12.750;2023-08-08T08:44:26;6.00;;;4.07;;
4375;SDS011;2202;50.866;12.750;2023-08-08T08:46:55;4.53;;;3.30;;
4375;SDS011;2202;50.866;12.750;2023-08-08T08:49:25;4.47;;;3.07;;
4375;SDS011;2202;50.866;12.750;2023-08-08T08:51:56;3.87;;;3.50;;
4375;SDS011;2202;50.866;12.750;2023-08-08T08:54:25;4.93;;;4.43;;
4375;SDS011;2202;50.866;12.750;2023-08-08T08:56:53;3.87;;;3.30;;
4375;SDS011;2202;50.866;12.750;2023-08-08T08:59:20;3.67;;;3.10;;
4375;SDS011;2202;50.866;12.750;2023-08-08T09:01:47;4.00;;;3.70;;
4375;SDS011;2202;50.866;12.750;2023-08-08T09:04:15;5.00;;;3.30;;
4375;SDS011;2202;50.866;12.750;2023-08-08T09:06:44;3.43;;;3.07;;
4375;SDS011;2202;50.866;12.750;2023-08-08T09:09:14;3.53;;;3.23;;
4375;SDS011;2202;50.866;12.750;2023-08-08T09:11:41;5.13;;;2.90;;
4375;SDS011;2202;50.866;12.750;2023-08-08T09:14:14;3.60;;;3.37;;
4375;SDS011;2202;50.866;12.750;2023-08-08T09:16:43;4.70;;;3.10;;
4375;SDS011;2202;50.866;12.750;2023-08-08T09:19:10;9.60;;;3.43;;
4375;SDS011;2202;50.866;12.750;2023-08-08T09:21:36;3.33;;;2.97;;
4375;SDS011;2202;50.866;12.750;2023-08-08T09:24:04;4.67;;;3.20;;
4375;SDS011;2202;50.866;12.750;2023-08-08T09:26:33;3.37;;;3.00;;
4375;SDS011;2202;50.866;12.750;2023-08-08T09:29:00;3.70;;;3.00;;
4375;SDS011;2202;50.866;12.750;2023-08-08T09:31:27;3.70;;;3.40;;
4375;SDS011;2202;50.866;12.750;2023-08-08T09:33:56;4.10;;;3.37;;
4375;SDS011;2202;50.866;12.750;2023-08-08T09:36:24;5.00;;;3.70;;
4375;SDS011;2202;50.866;12.750;2023-08-08T09:38:52;3.60;;;3.30;;
4375;SDS011;2202;50.866;12.750;2023-08-08T09:41:19;3.90;;;3.50;;
4375;SDS011;2202;50.866;12.750;2023-08-08T09:43:48;3.40;;;3.10;;
4375;SDS011;2202;50.866;12.750;2023-08-08T09:46:16;3.10;;;2.80;;
4375;SDS011;2202;50.866;12.750;2023-08-08T09:48:45;2.80;;;2.60;;
4375;SDS011;2202;50.866;12.750;2023-08-08T09:51:12;3.00;;;2.80;;
4375;SDS011;2202;50.866;12.750;2023-08-08T09:53:40;4.53;;;3.07;;
4375;SDS011;2202;50.866;12.750;2023-08-08T09:56:09;4.70;;;2.73;;
4375;SDS011;2202;50.866;12.750;2023-08-08T09:58:36;3.53;;;2.80;;
4375;SDS011;2202;50.866;12.750;2023-08-08T10:01:04;4.73;;;3.33;;
4375;SDS011;2202;50.866;12.750;2023-08-08T10:03:32;4.37;;;3.80;;
4375;SDS011;2202;50.866;12.750;2023-08-08T10:06:00;6.30;;;3.73;;
4375;SDS011;2202;50.866;12.750;2023-08-08T10:08:28;3.47;;;3.00;;
4375;SDS011;2202;50.866;12.750;2023-08-08T10:10:56;8.47;;;3.97;;
4375;SDS011;2202;50.866;12.750;2023-08-08T10:13:24;4.10;;;3.70;;
4375;SDS011;2202;50.866;12.750;2023-08-08T10:15:53;2.83;;;2.63;;
4375;SDS011;2202;50.866;12.750;2023-08-08T10:18:22;3.57;;;3.10;;
4375;SDS011;2202;50.866;12.750;2023-08-08T10:20:50;2.90;;;2.70;;
4375;SDS011;2202;50.866;12.750;2023-08-08T10:23:18;3.80;;;3.20;;
4375;SDS011;2202;50.866;12.750;2023-08-08T10:25:46;3.23;;;3.03;;
4375;SDS011;2202;50.866;12.750;2023-08-08T10:28:15;4.43;;;3.13;;
4375;SDS011;2202;50.866;12.750;2023-08-08T10:30:44;2.93;;;2.67;;
4375;SDS011;2202;50.866;12.750;2023-08-08T10:33:16;3.63;;;3.30;;
4375;SDS011;2202;50.866;12.750;2023-08-08T10:38:41;5.43;;;2.77;;
4375;SDS011;2202;50.866;12.750;2023-08-08T10:41:09;3.43;;;3.23;;
4375;SDS011;2202;50.866;12.750;2023-08-08T10:43:45;3.47;;;2.57;;
4375;SDS011;2202;50.866;12.750;2023-08-08T10:46:14;3.80;;;2.77;;
4375;SDS011;2202;50.866;12.750;2023-08-08T10:48:49;4.07;;;2.90;;
4375;SDS011;2202;50.866;12.750;2023-08-08T10:51:19;3.20;;;2.90;;
4375;SDS011;2202;50.866;12.750;2023-08-08T10:53:46;2.73;;;2.40;;
4375;SDS011;2202;50.866;12.750;2023-08-08T10:56:17;3.27;;;2.47;;
4375;SDS011;2202;50.866;12.750;2023-08-08T10:58:47;3.80;;;3.50;;
4375;SDS011;2202;50.866;12.750;2023-08-08T11:01:14;2.90;;;2.53;;
4375;SDS011;2202;50.866;12.750;2023-08-08T11:03:42;3.60;;;2.50;;
4375;SDS011;2202;50.866;12.750;2023-08-08T11:06:09;3.80;;;2.63;;
4375;SDS011;2202;50.866;12.750;2023-08-08T11:08:38;3.07;;;2.33;;
4375;SDS011;2202;50.866;12.750;2023-08-08T11:11:05;3.77;;;2.90;;
4375;SDS011;2202;50.866;12.750;2023-08-08T11:13:32;7.70;;;3.20;;
4375;SDS011;2202;50.866;12.750;2023-08-08T11:15:59;2.77;;;2.57;;
4375;SDS011;2202;50.866;12.750;2023-08-08T11:18:27;4.20;;;2.73;;
4375;SDS011;2202;50.866;12.750;2023-08-08T11:20:55;2.30;;;2.10;;
4375;SDS011;2202;50.866;12.750;2023-08-08T11:23:21;2.53;;;2.33;;
4375;SDS011;2202;50.866;12.750;2023-08-08T11:25:50;2.70;;;2.50;;
4375;SDS011;2202;50.866;12.750;2023-08-08T11:28:17;2.00;;;1.73;;
4375;SDS011;2202;50.866;12.750;2023-08-08T11:30:44;2.53;;;2.33;;
4375;SDS011;2202;50.866;12.750;2023-08-08T11:33:12;2.50;;;2.30;;
4375;SDS011;2202;50.866;12.750;2023-08-08T11:35:43;3.40;;;2.23;;
4375;SDS011;2202;50.866;12.750;2023-08-08T11:38:14;2.03;;;1.83;;
4375;SDS011;2202;50.866;12.750;2023-08-08T11:40:41;3.00;;;2.70;;
4375;SDS011;2202;50.866;12.750;2023-08-08T11:43:10;2.33;;;2.13;;
4375;SDS011;2202;50.866;12.750;2023-08-08T11:45:38;2.43;;;2.23;;
4375;SDS011;2202;50.866;12.750;2023-08-08T11:48:07;3.93;;;2.60;;
4375;SDS011;2202;50.866;12.750;2023-08-08T11:50:36;2.90;;;2.60;;
4375;SDS011;2202;50.866;12.750;2023-08-08T11:53:04;4.97;;;3.17;;
4375;SDS011;2202;50.866;12.750;2023-08-08T11:55:31;3.00;;;2.70;;
4375;SDS011;2202;50.866;12.750;2023-08-08T11:57:58;4.47;;;2.80;;
4375;SDS011;2202;50.866;12.750;2023-08-08T12:00:27;2.60;;;2.20;;
4375;SDS011;2202;50.866;12.750;2023-08-08T12:02:56;9.40;;;5.13;;
4375;SDS011;2202;50.866;12.750;2023-08-08T12:05:23;2.43;;;2.23;;
4375;SDS011;2202;50.866;12.750;2023-08-08T12:07:51;4.90;;;2.20;;
4375;SDS011;2202;50.866;12.750;2023-08-08T12:10:19;3.50;;;2.43;;
4375;SDS011;2202;50.866;12.750;2023-08-08T12:12:52;3.63;;;2.93;;
4375;SDS011;2202;50.866;12.750;2023-08-08T12:15:20;4.20;;;2.40;;
4375;SDS011;2202;50.866;12.750;2023-08-08T12:17:48;2.63;;;2.10;;
4375;SDS011;2202;50.866;12.750;2023-08-08T12:20:15;2.50;;;2.30;;
4375;SDS011;2202;50.866;12.750;2023-08-08T12:22:42;2.33;;;2.13;;
4375;SDS011;2202;50.866;12.750;2023-08-08T12:25:10;4.13;;;1.90;;
4375;SDS011;2202;50.866;12.750;2023-08-08T12:27:37;3.87;;;2.27;;
4375;SDS011;2202;50.866;12.750;2023-08-08T12:30:05;4.33;;;2.17;;
4375;SDS011;2202;50.866;12.750;2023-08-08T12:32:33;3.53;;;2.23;;
4375;SDS011;2202;50.866;12.750;2023-08-08T12:35:01;2.53;;;2.33;;
4375;SDS011;2202;50.866;12.750;2023-08-08T12:37:28;4.93;;;2.70;;
4375;SDS011;2202;50.866;12.750;2023-08-08T12:39:55;3.03;;;2.23;;
4375;SDS011;2202;50.866;12.750;2023-08-08T12:42:22;2.37;;;2.17;;
4375;SDS011;2202;50.866;12.750;2023-08-08T12:44:48;2.30;;;2.10;;
4375;SDS011;2202;50.866;12.750;2023-08-08T12:47:16;3.00;;;2.40;;
4375;SDS011;2202;50.866;12.750;2023-08-08T12:49:43;2.67;;;2.23;;
4375;SDS011;2202;50.866;12.750;2023-08-08T12:52:11;2.50;;;2.30;;
4375;SDS011;2202;50.866;12.750;2023-08-08T12:54:38;7.30;;;2.43;;
4375;SDS011;2202;50.866;12.750;2023-08-08T12:57:05;2.13;;;1.80;;
4375;SDS011;2202;50.866;12.750;2023-08-08T12:59:32;4.60;;;2.60;;
4375;SDS011;2202;50.866;12.750;2023-08-08T13:01:58;2.13;;;1.73;;
4375;SDS011;2202;50.866;12.750;2023-08-08T13:04:25;2.13;;;1.90;;
4375;SDS011;2202;50.866;12.750;2023-08-08T13:06:52;3.17;;;1.90;;
4375;SDS011;2202;50.866;12.750;2023-08-08T13:09:20;5.33;;;2.40;;
4375;SDS011;2202;50.866;12.750;2023-08-08T13:11:47;2.47;;;2.00;;
4375;SDS011;2202;50.866;12.750;2023-08-08T13:14:14;3.63;;;2.37;;
4375;SDS011;2202;50.866;12.750;2023-08-08T13:16:41;3.40;;;1.70;;
4375;SDS011;2202;50.866;12.750;2023-08-08T13:19:08;2.80;;;2.20;;
4375;SDS011;2202;50.866;12.750;2023-08-08T13:21:35;2.10;;;1.80;;
4375;SDS011;2202;50.866;12.750;2023-08-08T13:24:01;2.17;;;1.97;;
4375;SDS011;2202;50.866;12.750;2023-08-08T13:26:30;3.40;;;2.13;;
4375;SDS011;2202;50.866;12.750;2023-08-08T13:28:57;2.07;;;1.60;;
4375;SDS011;2202;50.866;12.750;2023-08-08T13:31:24;2.50;;;2.30;;
4375;SDS011;2202;50.866;12.750;2023-08-08T13:33:51;2.87;;;2.10;;
4375;SDS011;2202;50.866;12.750;2023-08-08T13:36:17;2.43;;;1.67;;
4375;SDS011;2202;50.866;12.750;2023-08-08T13:38:44;2.60;;;2.40;;
4375;SDS011;2202;50.866;12.750;2023-08-08T13:41:11;2.27;;;2.07;;
4375;SDS011;2202;50.866;12.750;2023-08-08T13:43:39;4.20;;;1.70;;
4375;SDS011;2202;50.866;12.750;2023-08-08T13:46:06;3.40;;;1.90;;
4375;SDS011;2202;50.866;12.750;2023-08-08T13:48:34;2.70;;;2.00;;
4375;SDS011;2202;50.866;12.750;2023-08-08T13:51:01;3.30;;;2.17;;
4375;SDS011;2202;50.866;12.750;2023-08-08T13:53:28;1.73;;;1.50;;
4375;SDS011;2202;50.866;12.750;2023-08-08T13:55:55;1.97;;;1.73;;
4375;SDS011;2202;50.866;12.750;2023-08-08T13:58:22;5.03;;;1.87;;
4375;SDS011;2202;50.866;12.750;2023-08-08T14:00:51;4.00;;;2.23;;
4375;SDS011;2202;50.866;12.750;2023-08-08T14:03:18;2.40;;;2.13;;
4375;SDS011;2202;50.866;12.750;2023-08-08T14:05:45;3.13;;;1.80;;
4375;SDS011;2202;50.866;12.750;2023-08-08T14:08:12;2.37;;;1.60;;
4375;SDS011;2202;50.866;12.750;2023-08-08T14:10:38;4.30;;;1.93;;
4375;SDS011;2202;50.866;12.750;2023-08-08T14:13:05;3.50;;;1.97;;
4375;SDS011;2202;50.866;12.750;2023-08-08T14:15:32;3.80;;;2.60;;
4375;SDS011;2202;50.866;12.750;2023-08-08T14:18:00;4.57;;;1.97;;
4375;SDS011;2202;50.866;12.750;2023-08-08T14:20:27;2.40;;;2.20;;
4375;SDS011;2202;50.866;12.750;2023-08-08T14:22:54;3.17;;;2.43;;
4375;SDS011;2202;50.866;12.750;2023-08-08T14:25:21;3.37;;;2.10;;
4375;SDS011;2202;50.866;12.750;2023-08-08T14:27:48;1.80;;;1.63;;
4375;SDS011;2202;50.866;12.750;2023-08-08T14:30:15;3.57;;;2.67;;
4375;SDS011;2202;50.866;12.750;2023-08-08T14:32:42;3.23;;;2.20;;
4375;SDS011;2202;50.866;12.750;2023-08-08T14:35:11;2.03;;;1.83;;
4375;SDS011;2202;50.866;12.750;2023-08-08T14:37:38;3.77;;;1.80;;
4375;SDS011;2202;50.866;12.750;2023-08-08T14:40:05;5.93;;;2.77;;
4375;SDS011;2202;50.866;12.750;2023-08-08T14:42:34;4.57;;;2.00;;
4375;SDS011;2202;50.866;12.750;2023-08-08T14:47:28;2.10;;;1.90;;
4375;SDS011;2202;50.866;12.750;2023-08-08T14:49:55;3.40;;;2.00;;
4375;SDS011;2202;50.866;12.750;2023-08-08T14:52:23;4.07;;;2.17;;
4375;SDS011;2202;50.866;12.750;2023-08-08T14:54:51;2.63;;;2.10;;
4375;SDS011;2202;50.866;12.750;2023-08-08T14:57:18;3.50;;;2.87;;
4375;SDS011;2202;50.866;12.750;2023-08-08T14:59:45;3.77;;;2.27;;
4375;SDS011;2202;50.866;12.750;2023-08-08T15:02:12;5.13;;;4.47;;
4375;SDS011;2202;50.866;12.750;2023-08-08T15:04:39;2.67;;;2.30;;